createdAt,value
2016-07-21T00:00:23.054Z,0
2016-07-21T00:01:23.080Z,0
2016-07-21T00:02:23.108Z,0
2016-07-21T00:03:23.146Z,0
2016-07-21T00:04:23.156Z,0
2016-07-21T00:05:23.182Z,0
2016-07-21T00:06:38.133Z,0
2016-07-21T00:07:23.240Z,0
2016-07-21T00:08:23.266Z,0
2016-07-21T00:09:23.295Z,0
2016-07-21T00:10:38.248Z,0
2016-07-21T00:11:38.268Z,0
2016-07-21T00:12:23.373Z,0
2016-07-21T00:13:24.098Z,0
2016-07-21T00:14:23.423Z,0
2016-07-21T00:15:23.455Z,0
2016-07-21T00:16:23.476Z,0
2016-07-21T00:17:23.513Z,0
2016-07-21T00:18:23.532Z,0
2016-07-21T00:19:38.489Z,0
2016-07-21T00:20:38.518Z,0
2016-07-21T00:21:23.603Z,0
2016-07-21T00:22:39.267Z,0
2016-07-21T00:23:23.671Z,0
2016-07-21T00:24:23.701Z,0
2016-07-21T00:25:23.727Z,0
2016-07-21T00:26:38.674Z,0
2016-07-21T00:27:23.784Z,0
2016-07-21T00:28:23.810Z,0
2016-07-21T00:29:23.831Z,0
2016-07-21T00:30:38.780Z,0
2016-07-21T00:31:23.885Z,0
2016-07-21T00:32:23.907Z,0
2016-07-21T00:33:23.938Z,0
2016-07-21T00:34:23.959Z,0
2016-07-21T00:35:23.993Z,0
2016-07-21T00:36:24.019Z,0
2016-07-21T00:37:24.042Z,0
2016-07-21T00:38:24.070Z,0
2016-07-21T00:39:24.095Z,0
2016-07-21T00:40:53.978Z,0
2016-07-21T00:41:39.086Z,0
2016-07-21T00:42:24.180Z,0
2016-07-21T00:43:39.122Z,0
2016-07-21T00:44:24.235Z,0
2016-07-21T00:45:24.262Z,0
2016-07-21T00:46:24.294Z,0
2016-07-21T00:47:24.303Z,0
2016-07-21T00:49:24.364Z,0
2016-07-21T00:50:24.394Z,0
2016-07-21T00:51:24.420Z,0
2016-07-21T00:52:24.444Z,0
2016-07-21T00:53:24.484Z,0
2016-07-21T00:54:24.501Z,0
2016-07-21T00:55:25.218Z,0
2016-07-21T00:56:24.564Z,0
2016-07-21T00:57:24.582Z,0
2016-07-21T00:59:24.636Z,0
2016-07-21T01:00:24.662Z,0
2016-07-21T01:01:24.687Z,0
2016-07-21T01:02:24.713Z,0
2016-07-21T01:03:24.738Z,0
2016-07-21T01:04:24.771Z,0
2016-07-21T01:05:24.794Z,0
2016-07-21T01:06:24.820Z,0
2016-07-21T01:07:24.844Z,0
2016-07-21T01:08:24.881Z,0
2016-07-21T01:09:24.892Z,0
2016-07-21T01:10:39.850Z,0
2016-07-21T01:11:39.880Z,0
2016-07-21T01:12:39.958Z,0
2016-07-21T01:13:39.940Z,0
2016-07-21T01:14:39.960Z,0
2016-07-21T01:15:25.072Z,0
2016-07-21T01:16:25.085Z,0
2016-07-21T01:17:25.111Z,0
2016-07-21T01:18:40.068Z,0
2016-07-21T01:19:25.869Z,0
2016-07-21T01:21:25.230Z,0
2016-07-21T01:22:25.242Z,0
2016-07-21T01:23:25.274Z,0
2016-07-21T01:24:25.294Z,0
2016-07-21T01:25:25.328Z,0
2016-07-21T01:26:25.359Z,0
2016-07-21T01:27:25.374Z,0
2016-07-21T01:28:40.332Z,0
2016-07-21T01:29:40.361Z,0
2016-07-21T01:30:41.079Z,0
2016-07-21T01:31:25.489Z,0
2016-07-21T01:32:25.515Z,0
2016-07-21T01:33:25.541Z,0
2016-07-21T01:34:25.567Z,0
2016-07-21T01:35:25.589Z,0
2016-07-21T01:36:25.620Z,0
2016-07-21T01:37:25.647Z,0
2016-07-21T01:38:25.674Z,0
2016-07-21T01:40:25.730Z,0
2016-07-21T01:41:25.751Z,0
2016-07-21T01:42:25.784Z,0
2016-07-21T01:43:25.819Z,0
2016-07-21T01:44:40.758Z,0
2016-07-21T01:45:55.712Z,0
2016-07-21T01:46:25.891Z,0
2016-07-21T01:47:25.918Z,0
2016-07-21T01:48:25.940Z,0
2016-07-21T01:49:25.966Z,0
2016-07-21T01:50:25.995Z,0
2016-07-21T01:51:26.037Z,0
2016-07-21T01:52:26.060Z,0
2016-07-21T01:53:26.072Z,0
2016-07-21T01:54:26.097Z,0
2016-07-21T01:55:26.126Z,0
2016-07-21T01:56:26.845Z,0
2016-07-21T01:57:26.176Z,0
2016-07-21T01:58:41.125Z,0
2016-07-21T01:59:41.149Z,0
2016-07-21T02:00:26.262Z,0
2016-07-21T02:01:41.207Z,0
2016-07-21T02:02:26.311Z,0
2016-07-21T02:03:26.342Z,0
2016-07-21T02:04:26.370Z,0
2016-07-21T02:05:26.394Z,0
2016-07-21T02:06:26.414Z,0
2016-07-21T02:07:26.448Z,0
2016-07-21T02:08:26.467Z,0
2016-07-21T02:09:26.503Z,0
2016-07-21T02:10:26.524Z,0
2016-07-21T02:11:26.559Z,0
2016-07-21T02:12:26.576Z,0
2016-07-21T02:13:26.601Z,0
2016-07-21T02:14:27.326Z,0
2016-07-21T02:16:41.614Z,0
2016-07-21T02:17:26.723Z,0
2016-07-21T02:18:26.734Z,0
2016-07-21T02:19:26.767Z,0
2016-07-21T02:20:41.707Z,0
2016-07-21T02:21:26.814Z,0
2016-07-21T02:22:41.766Z,0
2016-07-21T02:23:26.868Z,0
2016-07-21T02:24:26.899Z,0
2016-07-21T02:25:26.921Z,0
2016-07-21T02:26:26.946Z,0
2016-07-21T02:27:26.975Z,0
2016-07-21T02:28:27.017Z,0
2016-07-21T02:29:27.030Z,0
2016-07-21T02:30:41.969Z,0
2016-07-21T02:32:27.107Z,0
2016-07-21T02:33:27.137Z,0
2016-07-21T02:34:42.080Z,0
2016-07-21T02:35:42.103Z,0
2016-07-21T02:36:27.215Z,0
2016-07-21T02:37:42.162Z,0
2016-07-21T02:38:27.269Z,0
2016-07-21T02:39:42.215Z,0
2016-07-21T02:40:28.006Z,0
2016-07-21T02:41:27.340Z,0
2016-07-21T02:42:27.369Z,0
2016-07-21T02:43:27.399Z,0
2016-07-21T02:44:28.124Z,0
2016-07-21T02:45:28.749Z,0
2016-07-21T02:46:42.391Z,0
2016-07-21T02:47:27.495Z,0
2016-07-21T02:48:42.452Z,0
2016-07-21T02:49:42.482Z,0
2016-07-21T02:50:27.580Z,0
2016-07-21T02:52:27.633Z,0
2016-07-21T02:53:27.659Z,0
2016-07-21T02:54:27.688Z,0
2016-07-21T02:55:27.714Z,0
2016-07-21T02:56:27.752Z,0
2016-07-21T02:57:27.764Z,0
2016-07-21T02:58:27.789Z,0
2016-07-21T02:59:27.814Z,5
2016-07-21T03:00:27.836Z,5
2016-07-21T03:01:42.807Z,5
2016-07-21T03:02:27.897Z,5
2016-07-21T03:03:27.920Z,5
2016-07-21T03:04:42.872Z,5
2016-07-21T03:05:42.898Z,5
2016-07-21T03:08:28.081Z,5
2016-07-21T03:09:28.084Z,5
2016-07-21T03:10:28.108Z,5
2016-07-21T03:11:43.058Z,5
2016-07-21T03:12:43.083Z,10
2016-07-21T03:13:28.189Z,10
2016-07-21T03:14:43.191Z,10
2016-07-21T03:15:43.164Z,10
2016-07-21T03:16:28.271Z,10
2016-07-21T03:17:28.297Z,10
2016-07-21T03:18:43.236Z,10
2016-07-21T03:19:28.335Z,10
2016-07-21T03:20:43.293Z,15
2016-07-21T03:21:28.390Z,15
2016-07-21T03:22:28.422Z,15
2016-07-21T03:23:43.379Z,15
2016-07-21T03:25:28.536Z,15
2016-07-21T03:26:28.544Z,15
2016-07-21T03:27:28.551Z,20
2016-07-21T03:28:28.574Z,20
2016-07-21T03:29:28.605Z,20
2016-07-21T03:30:28.647Z,20
2016-07-21T03:31:28.654Z,20
2016-07-21T03:32:28.680Z,20
2016-07-21T03:33:28.710Z,20
2016-07-21T03:34:28.747Z,20
2016-07-21T03:35:28.769Z,20
2016-07-21T03:36:43.718Z,25
2016-07-21T03:37:43.739Z,25
2016-07-21T03:38:28.841Z,25
2016-07-21T03:39:28.870Z,25
2016-07-21T03:40:43.823Z,30
2016-07-21T03:41:28.930Z,30
2016-07-21T03:42:28.944Z,30
2016-07-21T03:43:28.979Z,30
2016-07-21T03:44:29.001Z,30
2016-07-21T03:45:29.032Z,35
2016-07-21T03:46:29.053Z,35
2016-07-21T03:47:44.000Z,35
2016-07-21T03:48:44.028Z,40
2016-07-21T03:49:29.136Z,40
2016-07-21T03:51:44.100Z,45
2016-07-21T03:52:44.134Z,45
2016-07-21T03:53:44.166Z,45
2016-07-21T03:54:44.190Z,45
2016-07-21T03:55:29.286Z,45
2016-07-21T03:56:29.311Z,45
2016-07-21T03:57:29.343Z,50
2016-07-21T03:58:29.373Z,50
2016-07-21T03:59:29.394Z,55
2016-07-21T04:00:29.428Z,55
2016-07-21T04:01:29.443Z,55
2016-07-21T04:02:29.522Z,55
2016-07-21T04:03:29.499Z,60
2016-07-21T04:04:29.529Z,60
2016-07-21T04:05:29.559Z,60
2016-07-21T04:06:44.505Z,60
2016-07-21T04:07:29.605Z,60
2016-07-21T04:08:44.550Z,60
2016-07-21T04:09:44.580Z,65
2016-07-21T04:10:29.690Z,65
2016-07-21T04:11:29.704Z,70
2016-07-21T04:12:44.663Z,80
2016-07-21T04:13:29.769Z,80
2016-07-21T04:14:44.713Z,80
2016-07-21T04:15:29.815Z,85
2016-07-21T04:16:30.538Z,80
2016-07-21T04:17:29.869Z,80
2016-07-21T04:18:29.905Z,85
2016-07-21T04:19:29.929Z,90
2016-07-21T04:20:29.940Z,90
2016-07-21T04:21:44.900Z,105
2016-07-21T04:22:29.995Z,105
2016-07-21T04:23:59.876Z,100
2016-07-21T04:24:30.059Z,100
2016-07-21T04:25:30.086Z,100
2016-07-21T04:26:30.103Z,100
2016-07-21T04:27:30.139Z,105
2016-07-21T04:28:30.159Z,105
2016-07-21T04:29:30.187Z,105
2016-07-21T04:30:30.209Z,105
2016-07-21T04:31:45.171Z,105
2016-07-21T04:32:45.193Z,105
2016-07-21T04:33:30.286Z,110
2016-07-21T04:34:45.246Z,120
2016-07-21T04:35:30.343Z,140
2016-07-21T04:36:30.368Z,135
2016-07-21T04:37:30.388Z,115
2016-07-21T04:38:30.420Z,115
2016-07-21T04:39:45.382Z,125
2016-07-21T04:40:30.476Z,140
2016-07-21T04:41:31.200Z,145
2016-07-21T04:42:45.447Z,145
2016-07-21T04:43:30.559Z,145
2016-07-21T04:44:31.290Z,140
2016-07-21T04:45:30.603Z,150
2016-07-21T04:46:30.644Z,150
2016-07-21T04:47:30.659Z,185
2016-07-21T04:48:45.612Z,705
2016-07-21T04:49:30.718Z,1040
2016-07-21T04:50:31.437Z,1160
2016-07-21T04:51:30.768Z,1155
2016-07-21T04:52:30.797Z,1145
2016-07-21T04:53:30.816Z,1175
2016-07-21T04:54:30.859Z,1200
2016-07-21T04:55:45.805Z,1145
2016-07-21T04:57:00.758Z,1180
2016-07-21T04:57:30.944Z,1240
2016-07-21T04:58:31.952Z,1280
2016-07-21T04:59:30.986Z,1250
2016-07-21T05:00:31.030Z,1270
2016-07-21T05:02:31.094Z,1330
2016-07-21T05:03:46.044Z,1305
2016-07-21T05:04:31.146Z,1330
2016-07-21T05:05:46.110Z,1340
2016-07-21T05:06:31.211Z,1290
2016-07-21T05:07:31.241Z,1330
2016-07-21T05:08:31.272Z,1290
2016-07-21T05:09:46.225Z,1310
2016-07-21T05:10:31.343Z,1345
2016-07-21T05:11:46.300Z,1335
2016-07-21T05:12:46.332Z,1340
2016-07-21T05:13:31.451Z,1355
2016-07-21T05:14:31.472Z,1380
2016-07-21T05:15:31.501Z,1345
2016-07-21T05:16:31.549Z,1335
2016-07-21T05:17:46.503Z,1385
2016-07-21T05:18:31.597Z,1405
2016-07-21T05:19:31.635Z,1385
2016-07-21T05:20:31.668Z,1320
2016-07-21T05:21:31.701Z,1305
2016-07-21T05:23:31.763Z,1430
2016-07-21T05:25:31.828Z,1335
2016-07-21T05:26:46.791Z,1275
2016-07-21T05:27:46.825Z,1120
2016-07-21T05:28:31.938Z,1070
2016-07-21T05:29:32.671Z,1175
2016-07-21T05:30:46.942Z,1285
2016-07-21T05:31:32.031Z,1325
2016-07-21T05:32:32.078Z,1445
2016-07-21T05:33:32.105Z,1340
2016-07-21T05:34:32.137Z,1380
2016-07-21T05:35:32.176Z,1350
2016-07-21T05:36:32.205Z,1450
2016-07-21T05:37:32.245Z,1350
2016-07-21T05:38:47.200Z,1195
2016-07-21T05:39:47.240Z,1305
2016-07-21T05:40:32.345Z,1300
2016-07-21T05:41:33.073Z,1375
2016-07-21T05:42:32.411Z,1345
2016-07-21T05:43:32.444Z,1290
2016-07-21T05:44:32.493Z,1420
2016-07-21T05:46:32.547Z,1465
2016-07-21T05:47:32.584Z,1475
2016-07-21T05:48:32.624Z,1495
2016-07-21T05:49:32.653Z,1495
2016-07-21T05:50:32.712Z,1475
2016-07-21T05:51:32.726Z,1480
2016-07-21T05:52:32.753Z,1505
2016-07-21T05:53:32.791Z,1510
2016-07-21T05:54:32.821Z,1475
2016-07-21T05:55:32.864Z,1515
2016-07-21T05:56:32.900Z,1555
2016-07-21T05:57:32.937Z,1535
2016-07-21T05:58:47.903Z,1505
2016-07-21T05:59:33.006Z,1495
2016-07-21T06:00:33.037Z,1510
2016-07-21T06:01:33.079Z,1505
2016-07-21T06:02:33.118Z,1480
2016-07-21T06:03:33.149Z,1450
2016-07-21T06:04:33.188Z,1445
2016-07-21T06:05:33.218Z,1455
2016-07-21T06:06:33.251Z,1500
2016-07-21T06:07:33.300Z,1540
2016-07-21T06:08:33.328Z,1450
2016-07-21T06:09:33.367Z,1415
2016-07-21T06:10:34.101Z,1480
2016-07-21T06:11:33.452Z,1530
2016-07-21T06:12:33.485Z,1530
2016-07-21T06:13:33.519Z,1570
2016-07-21T06:14:49.165Z,1475
2016-07-21T06:15:33.588Z,1475
2016-07-21T06:16:34.310Z,1525
2016-07-21T06:17:48.588Z,1505
2016-07-21T06:18:33.692Z,1495
2016-07-21T06:19:33.733Z,1495
2016-07-21T06:20:33.826Z,1460
2016-07-21T06:21:33.812Z,1425
2016-07-21T06:22:33.844Z,1400
2016-07-21T06:23:33.881Z,1370
2016-07-21T06:24:48.850Z,1425
2016-07-21T06:25:33.956Z,1390
2016-07-21T06:26:33.985Z,1345
2016-07-21T06:27:48.965Z,950
2016-07-21T06:28:34.070Z,610
2016-07-21T06:29:35.017Z,750
2016-07-21T06:30:49.068Z,570
2016-07-21T06:31:49.101Z,960
2016-07-21T06:32:34.217Z,995
2016-07-21T06:33:34.278Z,1260
2016-07-21T06:35:34.326Z,1310
2016-07-21T06:36:34.366Z,1115
2016-07-21T06:37:34.394Z,1295
2016-07-21T06:38:34.451Z,1210
2016-07-21T06:39:34.459Z,1040
2016-07-21T06:40:34.516Z,1275
2016-07-21T06:41:34.542Z,1265
2016-07-21T06:42:49.508Z,1300
2016-07-21T06:43:49.541Z,1275
2016-07-21T06:44:49.570Z,1295
2016-07-21T06:45:49.617Z,1310
2016-07-21T06:47:04.584Z,1085
2016-07-21T06:47:49.683Z,685
2016-07-21T06:48:34.808Z,1145
2016-07-21T06:49:34.836Z,1125
2016-07-21T06:50:50.495Z,1220
2016-07-21T06:51:34.917Z,1200
2016-07-21T06:52:34.959Z,1205
2016-07-21T06:53:34.996Z,1185
2016-07-21T06:54:35.023Z,1145
2016-07-21T06:55:35.063Z,1125
2016-07-21T06:56:35.097Z,1100
2016-07-21T06:57:35.133Z,1055
2016-07-21T06:59:05.028Z,995
2016-07-21T06:59:35.209Z,990
2016-07-21T07:01:05.095Z,945
2016-07-21T07:01:50.216Z,910
2016-07-21T07:03:50.285Z,845
2016-07-21T07:04:35.394Z,825
2016-07-21T07:05:35.434Z,790
2016-07-21T07:06:36.174Z,720
2016-07-21T07:07:35.511Z,685
2016-07-21T07:08:35.549Z,525
2016-07-21T07:09:35.588Z,425
2016-07-21T07:10:50.554Z,545
2016-07-21T07:11:35.653Z,585
2016-07-21T07:12:35.702Z,600
2016-07-21T07:13:50.661Z,610
2016-07-21T07:14:35.774Z,600
2016-07-21T07:15:36.510Z,570
2016-07-21T07:16:35.841Z,645
2016-07-21T07:17:35.939Z,645
2016-07-21T07:18:50.852Z,675
2016-07-21T07:19:35.945Z,720
2016-07-21T07:20:35.987Z,820
2016-07-21T07:21:36.017Z,1045
2016-07-21T07:22:36.740Z,1710
2016-07-21T07:23:36.140Z,2070
2016-07-21T07:24:36.133Z,1705
2016-07-21T07:25:36.171Z,1370
2016-07-21T07:26:36.208Z,1215
2016-07-21T07:27:36.233Z,1195
2016-07-21T07:28:36.275Z,1295
2016-07-21T07:29:36.310Z,1270
2016-07-21T07:31:06.214Z,1150
2016-07-21T07:31:36.396Z,1145
2016-07-21T07:32:36.416Z,1220
2016-07-21T07:33:51.396Z,1290
2016-07-21T07:34:36.509Z,1270
2016-07-21T07:35:51.462Z,1230
2016-07-21T07:36:36.572Z,1125
2016-07-21T07:37:36.616Z,1060
2016-07-21T07:38:36.652Z,1090
2016-07-21T07:39:36.711Z,1110
2016-07-21T07:40:36.724Z,1110
2016-07-21T07:41:36.763Z,1110
2016-07-21T07:42:36.806Z,1070
2016-07-21T07:43:36.840Z,1040
2016-07-21T07:44:36.878Z,990
2016-07-21T07:45:36.911Z,965
2016-07-21T07:46:36.953Z,1005
2016-07-21T07:47:51.915Z,985
2016-07-21T07:49:52.000Z,1005
2016-07-21T07:50:52.028Z,995
2016-07-21T07:51:37.845Z,980
2016-07-21T07:52:37.177Z,990
2016-07-21T07:53:37.210Z,1020
2016-07-21T07:54:37.255Z,1020
2016-07-21T07:55:37.292Z,1005
2016-07-21T07:56:37.324Z,970
2016-07-21T07:57:37.362Z,930
2016-07-21T07:58:37.402Z,930
2016-07-21T07:59:37.436Z,920
2016-07-21T08:01:38.212Z,860
2016-07-21T08:03:37.592Z,855
2016-07-21T08:04:37.628Z,845
2016-07-21T08:06:07.517Z,835
2016-07-21T08:06:37.704Z,825
2016-07-21T08:07:37.739Z,810
2016-07-21T08:08:37.776Z,820
2016-07-21T08:09:37.822Z,830
2016-07-21T08:10:37.851Z,805
2016-07-21T08:11:37.884Z,780
2016-07-21T08:12:38.634Z,780
2016-07-21T08:13:37.960Z,785
2016-07-21T08:14:38.012Z,765
2016-07-21T08:15:38.050Z,745
2016-07-21T08:16:38.074Z,730
2016-07-21T08:17:38.103Z,725
2016-07-21T08:18:38.155Z,730
2016-07-21T08:19:38.185Z,720
2016-07-21T08:20:53.159Z,710
2016-07-21T08:21:53.187Z,710
2016-07-21T08:23:38.339Z,635
2016-07-21T08:24:38.368Z,645
2016-07-21T08:25:38.416Z,665
2016-07-21T08:26:38.450Z,605
2016-07-21T08:27:38.487Z,535
2016-07-21T08:28:38.522Z,380
2016-07-21T08:29:53.477Z,545
2016-07-21T08:31:38.643Z,605
2016-07-21T08:32:38.674Z,615
2016-07-21T08:33:38.698Z,605
2016-07-21T08:34:38.742Z,575
2016-07-21T08:35:53.702Z,580
2016-07-21T08:36:53.737Z,570
2016-07-21T08:37:38.849Z,525
2016-07-21T08:38:38.934Z,520
2016-07-21T08:39:38.919Z,435
2016-07-21T08:40:39.652Z,485
2016-07-21T08:41:38.997Z,400
2016-07-21T08:42:39.032Z,520
2016-07-21T08:43:39.065Z,555
2016-07-21T08:44:39.107Z,505
2016-07-21T08:45:39.153Z,445
2016-07-21T08:46:39.182Z,420
2016-07-21T08:47:39.210Z,300
2016-07-21T08:48:39.254Z,500
2016-07-21T08:49:54.209Z,410
2016-07-21T08:50:39.337Z,495
2016-07-21T08:51:39.367Z,480
2016-07-21T08:52:39.390Z,475
2016-07-21T08:53:54.361Z,465
2016-07-21T08:54:39.473Z,450
2016-07-21T08:55:39.509Z,470
2016-07-21T08:56:39.543Z,480
2016-07-21T08:57:40.298Z,475
2016-07-21T08:58:54.557Z,300
2016-07-21T08:59:40.361Z,410
2016-07-21T09:00:39.689Z,345
2016-07-21T09:01:39.727Z,350
2016-07-21T09:02:54.689Z,465
2016-07-21T09:03:39.791Z,450
2016-07-21T09:04:39.836Z,445
2016-07-21T09:05:54.792Z,480
2016-07-21T09:06:39.909Z,515
2016-07-21T09:07:39.944Z,470
2016-07-21T09:09:09.827Z,495
2016-07-21T09:09:40.009Z,510
2016-07-21T09:10:40.037Z,515
2016-07-21T09:11:40.081Z,505
2016-07-21T09:12:40.127Z,495
2016-07-21T09:13:40.147Z,510
2016-07-21T09:14:40.191Z,500
2016-07-21T09:15:40.213Z,490
2016-07-21T09:16:40.265Z,485
2016-07-21T09:17:40.300Z,465
2016-07-21T09:18:40.321Z,455
2016-07-21T09:19:40.376Z,430
2016-07-21T09:22:10.292Z,390
2016-07-21T09:22:40.478Z,410
2016-07-21T09:23:40.513Z,355
2016-07-21T09:24:55.470Z,365
2016-07-21T09:25:40.581Z,330
2016-07-21T09:26:40.621Z,360
2016-07-21T09:27:40.655Z,340
2016-07-21T09:28:40.682Z,335
2016-07-21T09:29:55.650Z,330
2016-07-21T09:31:40.796Z,375
2016-07-21T09:32:40.829Z,380
2016-07-21T09:33:40.867Z,380
2016-07-21T09:34:40.894Z,370
2016-07-21T09:35:55.863Z,370
2016-07-21T09:36:40.967Z,370
2016-07-21T09:37:41.020Z,330
2016-07-21T09:38:41.046Z,385
2016-07-21T09:39:41.087Z,370
2016-07-21T09:40:56.035Z,355
2016-07-21T09:41:41.156Z,340
2016-07-21T09:42:41.187Z,330
2016-07-21T09:43:41.225Z,315
2016-07-21T09:44:56.186Z,300
2016-07-21T09:45:41.991Z,295
2016-07-21T09:46:41.333Z,300
2016-07-21T09:47:41.357Z,300
2016-07-21T09:48:42.089Z,310
2016-07-21T09:49:41.441Z,335
2016-07-21T09:50:41.470Z,300
2016-07-21T09:51:41.510Z,300
2016-07-21T09:52:41.529Z,270
2016-07-21T09:55:41.642Z,250
2016-07-21T09:56:56.591Z,345
2016-07-21T09:57:41.710Z,295
2016-07-21T09:58:41.741Z,230
2016-07-21T09:59:41.774Z,330
2016-07-21T10:00:41.809Z,285
2016-07-21T10:01:41.845Z,290
2016-07-21T10:02:41.871Z,190
2016-07-21T10:03:41.913Z,310
2016-07-21T10:04:56.872Z,310
2016-07-21T10:05:41.972Z,305
2016-07-21T10:06:56.945Z,305
2016-07-21T10:07:42.051Z,305
2016-07-21T10:08:42.777Z,300
2016-07-21T10:09:42.116Z,300
2016-07-21T10:10:42.158Z,305
2016-07-21T10:11:57.116Z,300
2016-07-21T10:12:42.218Z,300
2016-07-21T10:13:42.257Z,300
2016-07-21T10:15:42.326Z,300
2016-07-21T10:16:42.354Z,300
2016-07-21T10:17:42.390Z,300
2016-07-21T10:18:42.424Z,300
2016-07-21T10:19:42.461Z,300
2016-07-21T10:20:42.497Z,300
2016-07-21T10:21:42.543Z,300
2016-07-21T10:22:42.563Z,295
2016-07-21T10:23:57.539Z,295
2016-07-21T10:24:57.554Z,295
2016-07-21T10:25:42.666Z,295
2016-07-21T10:26:42.701Z,285
2016-07-21T10:27:42.738Z,295
2016-07-21T10:28:42.768Z,295
2016-07-21T10:29:42.798Z,295
2016-07-21T10:30:42.836Z,295
2016-07-21T10:31:42.873Z,295
2016-07-21T10:32:42.899Z,300
2016-07-21T10:33:42.937Z,310
2016-07-21T10:34:42.973Z,310
2016-07-21T10:35:43.008Z,270
2016-07-21T10:36:43.041Z,235
2016-07-21T10:37:43.068Z,225
2016-07-21T10:39:43.136Z,215
2016-07-21T10:40:43.867Z,215
2016-07-21T10:41:43.212Z,230
2016-07-21T10:42:43.241Z,290
2016-07-21T10:44:13.130Z,300
2016-07-21T10:44:43.311Z,265
2016-07-21T10:45:43.341Z,225
2016-07-21T10:46:43.381Z,230
2016-07-21T10:47:43.407Z,305
2016-07-21T10:48:58.371Z,315
2016-07-21T10:49:43.480Z,295
2016-07-21T10:50:43.510Z,225
2016-07-21T10:51:43.552Z,220
2016-07-21T10:52:43.579Z,215
2016-07-21T10:53:58.544Z,215
2016-07-21T10:54:43.646Z,210
2016-07-21T10:55:43.684Z,205
2016-07-21T10:56:43.721Z,205
2016-07-21T10:57:43.740Z,205
2016-07-21T10:58:43.786Z,205
2016-07-21T11:00:43.873Z,220
2016-07-21T11:01:43.879Z,225
2016-07-21T11:02:58.844Z,255
2016-07-21T11:03:43.950Z,245
2016-07-21T11:04:43.990Z,235
2016-07-21T11:05:44.016Z,230
2016-07-21T11:06:58.975Z,230
2016-07-21T11:07:44.802Z,230
2016-07-21T11:08:44.117Z,220
2016-07-21T11:09:44.147Z,225
2016-07-21T11:10:44.177Z,225
2016-07-21T11:11:44.224Z,220
2016-07-21T11:12:59.178Z,215
2016-07-21T11:13:44.983Z,210
2016-07-21T11:14:44.544Z,210
2016-07-21T11:15:59.281Z,200
2016-07-21T11:16:59.307Z,205
2016-07-21T11:17:44.421Z,200
2016-07-21T11:18:44.467Z,200
2016-07-21T11:19:44.479Z,200
2016-07-21T11:20:45.210Z,195
2016-07-21T11:21:44.547Z,190
2016-07-21T11:22:44.582Z,190
2016-07-21T11:23:59.540Z,185
2016-07-21T11:24:45.396Z,185
2016-07-21T11:25:44.683Z,185
2016-07-21T11:26:44.714Z,185
2016-07-21T11:27:44.748Z,180
2016-07-21T11:28:44.777Z,180
2016-07-21T11:29:44.815Z,180
2016-07-21T11:30:44.850Z,175
2016-07-21T11:32:00.520Z,170
2016-07-21T11:32:45.604Z,170
2016-07-21T11:33:44.939Z,165
2016-07-21T11:35:45.011Z,165
2016-07-21T11:36:45.735Z,165
2016-07-21T11:37:45.080Z,165
2016-07-21T11:38:45.102Z,165
2016-07-21T11:39:45.145Z,165
2016-07-21T11:40:45.177Z,165
2016-07-21T11:41:45.216Z,165
2016-07-21T11:43:45.272Z,165
2016-07-21T11:44:45.310Z,165
2016-07-21T11:45:45.347Z,165
2016-07-21T11:47:00.296Z,160
2016-07-21T11:48:00.352Z,160
2016-07-21T11:49:00.360Z,160
2016-07-21T11:49:45.556Z,160
2016-07-21T11:50:45.507Z,160
2016-07-21T11:51:45.540Z,160
2016-07-21T11:52:45.561Z,160
2016-07-21T11:54:00.526Z,160
2016-07-21T11:54:45.634Z,160
2016-07-21T11:55:45.672Z,165
2016-07-21T11:56:45.702Z,165
2016-07-21T11:57:45.730Z,165
2016-07-21T11:59:00.692Z,170
2016-07-21T11:59:45.796Z,170
2016-07-21T12:00:46.522Z,170
2016-07-21T12:01:45.862Z,170
2016-07-21T12:02:45.886Z,175
2016-07-21T12:03:45.931Z,170
2016-07-21T12:04:45.961Z,170
2016-07-21T12:05:45.988Z,170
2016-07-21T12:07:00.952Z,175
2016-07-21T12:07:46.063Z,175
2016-07-21T12:08:46.083Z,180
2016-07-21T12:09:46.127Z,185
2016-07-21T12:10:46.141Z,185
2016-07-21T12:11:46.183Z,190
2016-07-21T12:12:46.220Z,195
2016-07-21T12:13:46.247Z,195
2016-07-21T12:14:46.281Z,200
2016-07-21T12:15:46.316Z,205
2016-07-21T12:16:46.353Z,210
2016-07-21T12:17:46.391Z,205
2016-07-21T12:19:16.264Z,205
2016-07-21T12:19:46.451Z,205
2016-07-21T12:20:47.187Z,205
2016-07-21T12:21:46.509Z,205
2016-07-21T12:23:01.469Z,205
2016-07-21T12:23:46.573Z,205
2016-07-21T12:24:46.613Z,205
2016-07-21T12:26:46.692Z,210
2016-07-21T12:28:01.635Z,210
2016-07-21T12:28:46.737Z,210
2016-07-21T12:29:46.776Z,215
2016-07-21T12:30:46.806Z,210
2016-07-21T12:32:01.757Z,205
2016-07-21T12:32:46.858Z,210
2016-07-21T12:33:46.893Z,210
2016-07-21T12:35:01.864Z,215
2016-07-21T12:35:46.965Z,225
2016-07-21T12:36:46.991Z,250
2016-07-21T12:37:47.721Z,215
2016-07-21T12:38:47.060Z,215
2016-07-21T12:39:47.103Z,215
2016-07-21T12:40:47.125Z,220
2016-07-21T12:41:47.159Z,220
2016-07-21T12:42:47.193Z,240
2016-07-21T12:43:47.219Z,225
2016-07-21T12:45:02.185Z,240
2016-07-21T12:45:47.288Z,240
2016-07-21T12:46:47.333Z,220
2016-07-21T12:49:02.312Z,220
2016-07-21T12:49:47.427Z,215
2016-07-21T12:51:02.374Z,215
2016-07-21T12:51:47.498Z,215
2016-07-21T12:52:47.527Z,215
2016-07-21T12:53:47.552Z,210
2016-07-21T12:54:47.578Z,210
2016-07-21T12:55:47.602Z,210
2016-07-21T12:56:47.651Z,210
2016-07-21T12:57:47.674Z,210
2016-07-21T12:58:47.710Z,210
2016-07-21T12:59:47.753Z,210
2016-07-21T13:00:47.777Z,205
2016-07-21T13:01:47.805Z,205
2016-07-21T13:02:47.846Z,205
2016-07-21T13:04:02.802Z,205
2016-07-21T13:04:48.597Z,205
2016-07-21T13:05:47.937Z,210
2016-07-21T13:07:02.896Z,210
2016-07-21T13:08:02.929Z,210
2016-07-21T13:08:48.054Z,215
2016-07-21T13:09:48.071Z,210
2016-07-21T13:10:48.093Z,210
2016-07-21T13:11:48.143Z,210
2016-07-21T13:12:48.164Z,205
2016-07-21T13:13:48.199Z,205
2016-07-21T13:14:48.256Z,205
2016-07-21T13:15:48.265Z,210
2016-07-21T13:16:48.292Z,215
2016-07-21T13:17:48.334Z,235
2016-07-21T13:18:48.360Z,225
2016-07-21T13:19:48.387Z,245
2016-07-21T13:21:03.350Z,220
2016-07-21T13:22:18.312Z,210
2016-07-21T13:23:03.414Z,215
2016-07-21T13:23:48.518Z,205
2016-07-21T13:24:48.563Z,195
2016-07-21T13:25:48.588Z,195
2016-07-21T13:26:48.623Z,195
2016-07-21T13:27:48.661Z,190
2016-07-21T13:28:48.682Z,190
2016-07-21T13:29:48.717Z,190
2016-07-21T13:30:48.753Z,190
2016-07-21T13:31:48.833Z,195
2016-07-21T13:33:03.740Z,190
2016-07-21T13:33:48.844Z,190
2016-07-21T13:34:48.874Z,190
2016-07-21T13:35:48.915Z,190
2016-07-21T13:36:48.944Z,190
2016-07-21T13:37:48.978Z,190
2016-07-21T13:38:49.015Z,185
2016-07-21T13:39:49.049Z,185
2016-07-21T13:40:49.074Z,180
2016-07-21T13:42:49.146Z,175
2016-07-21T13:43:49.186Z,170
2016-07-21T13:44:49.211Z,170
2016-07-21T13:45:49.244Z,175
2016-07-21T13:46:49.274Z,175
2016-07-21T13:47:49.320Z,175
2016-07-21T13:48:49.343Z,165
2016-07-21T13:49:49.363Z,160
2016-07-21T13:51:04.334Z,155
2016-07-21T13:51:49.443Z,155
2016-07-21T13:55:04.451Z,155
2016-07-21T13:55:49.564Z,155
2016-07-21T13:56:49.594Z,155
2016-07-21T13:57:49.629Z,155
2016-07-21T13:58:49.655Z,150
2016-07-21T13:59:49.695Z,150
2016-07-21T14:00:49.718Z,150
2016-07-21T14:01:49.766Z,145
2016-07-21T14:02:50.489Z,150
2016-07-21T14:04:04.750Z,145
2016-07-21T14:04:49.859Z,145
2016-07-21T14:05:49.879Z,140
2016-07-21T14:06:49.917Z,140
2016-07-21T14:07:49.943Z,140
2016-07-21T14:08:49.985Z,140
2016-07-21T14:10:19.868Z,135
2016-07-21T14:10:50.057Z,135
2016-07-21T14:11:50.083Z,135
2016-07-21T14:12:50.120Z,135
2016-07-21T14:13:50.152Z,135
2016-07-21T14:14:50.173Z,130
2016-07-21T14:15:50.211Z,130
2016-07-21T14:16:50.245Z,130
2016-07-21T14:18:05.196Z,130
2016-07-21T14:18:50.306Z,130
2016-07-21T14:20:05.262Z,130
2016-07-21T14:20:50.369Z,130
2016-07-21T14:21:50.409Z,130
2016-07-21T14:23:05.363Z,135
2016-07-21T14:23:50.475Z,135
2016-07-21T14:24:50.501Z,140
2016-07-21T14:26:05.453Z,140
2016-07-21T14:26:50.557Z,145
2016-07-21T14:27:50.600Z,145
2016-07-21T14:28:50.632Z,145
2016-07-21T14:30:05.599Z,145
2016-07-21T14:30:50.709Z,145
2016-07-21T14:31:50.720Z,145